createdAt,value
2022-11-29T00:00:28.878Z,50.33
2022-11-29T00:03:34.024Z,50.15
2022-11-29T00:06:36.333Z,49.05
2022-11-29T00:09:38.848Z,48.40
2022-11-29T00:12:40.998Z,50.03
2022-11-29T00:15:43.381Z,45.40
2022-11-29T00:18:45.503Z,51.55
2022-11-29T00:21:48.092Z,50.28
2022-11-29T00:24:50.217Z,45.70
2022-11-29T00:27:52.824Z,50.08
2022-11-29T00:30:55.137Z,54.67
2022-11-29T00:34:00.030Z,54.85
2022-11-29T00:37:02.169Z,49.00
2022-11-29T00:40:05.721Z,57.88
2022-11-29T00:43:07.861Z,51.67
2022-11-29T00:46:10.843Z,54.33
2022-11-29T00:49:13.094Z,54.28
2022-11-29T00:52:15.555Z,56.63
2022-11-29T00:55:17.804Z,51.67
2022-11-29T00:58:20.855Z,50.20
2022-11-29T01:01:23.088Z,44.63
2022-11-29T01:04:25.634Z,46.10
2022-11-29T01:07:27.823Z,49.55
2022-11-29T01:10:30.329Z,48.60
2022-11-29T01:13:33.831Z,49.38
2022-11-29T01:16:36.432Z,45.53
2022-11-29T01:19:39.121Z,39.90
2022-11-29T01:22:42.521Z,39.15
2022-11-29T01:25:44.633Z,43.67
2022-11-29T01:28:48.393Z,39.30
2022-11-29T01:31:50.518Z,41.08
2022-11-29T01:34:52.974Z,38.05
2022-11-29T01:37:55.402Z,38.25
2022-11-29T01:41:05.764Z,49.42
2022-11-29T01:44:30.664Z,41.42
2022-11-29T01:47:33.921Z,42.40
2022-11-29T01:50:38.596Z,41.70
2022-11-29T01:53:41.107Z,43.65
2022-11-29T01:56:45.268Z,48.05
2022-11-29T01:59:50.979Z,42.20
2022-11-29T02:03:03.677Z,40.63
2022-11-29T02:06:07.712Z,39.15
2022-11-29T02:09:22.150Z,41.55
2022-11-29T02:12:39.841Z,40.30
2022-11-29T02:15:50.759Z,38.10
2022-11-29T02:22:48.861Z,34.90
2022-11-29T02:26:45.155Z,40.15
2022-11-29T02:30:18.013Z,34.45
2022-11-29T02:33:39.284Z,35.45
2022-11-29T02:37:00.126Z,37.67
2022-11-29T02:40:11.573Z,36.38
2022-11-29T02:46:49.441Z,35.83
2022-11-29T02:50:11.041Z,30.35
2022-11-29T02:53:51.947Z,31.40
2022-11-29T02:57:00.032Z,33.90
2022-11-29T03:00:10.399Z,31.17
2022-11-29T03:03:23.604Z,28.95
2022-11-29T03:06:39.410Z,31.90
2022-11-29T03:09:46.388Z,26.37
2022-11-29T03:12:51.976Z,28.62
2022-11-29T03:16:31.345Z,24.35
2022-11-29T03:19:33.648Z,27.05
2022-11-29T03:22:46.933Z,28.27
2022-11-29T03:26:15.787Z,26.35
2022-11-29T03:29:48.144Z,26.83
2022-11-29T03:33:20.895Z,26.73
2022-11-29T03:36:51.900Z,28.38
2022-11-29T03:43:14.150Z,31.37
2022-11-29T03:46:36.664Z,29.45
2022-11-29T03:49:56.064Z,25.77
2022-11-29T03:53:16.784Z,27.08
2022-11-29T03:56:28.360Z,27.37
2022-11-29T03:59:50.337Z,26.70
2022-11-29T04:03:07.965Z,26.85
2022-11-29T04:06:24.345Z,26.48
2022-11-29T04:09:49.907Z,25.33
2022-11-29T04:13:14.355Z,30.30
2022-11-29T04:16:38.709Z,30.52
2022-11-29T04:20:10.353Z,27.45
2022-11-29T04:23:53.097Z,29.23
2022-11-29T04:27:02.040Z,29.98
2022-11-29T04:30:07.007Z,28.55
2022-11-29T04:33:28.189Z,28.40
2022-11-29T04:36:48.887Z,32.75
2022-11-29T04:40:11.518Z,32.28
2022-11-29T04:43:47.363Z,33.28
2022-11-29T04:46:55.853Z,29.33
2022-11-29T04:50:41.333Z,29.87
2022-11-29T04:54:22.036Z,29.98
2022-11-29T04:57:37.507Z,32.03
2022-11-29T05:00:50.515Z,32.67
2022-11-29T05:04:02.525Z,34.70
2022-11-29T05:07:23.913Z,30.50
2022-11-29T05:10:35.437Z,30.55
2022-11-29T05:14:15.508Z,31.55
2022-11-29T05:17:33.489Z,31.55
2022-11-29T05:20:51.538Z,32.30
2022-11-29T05:24:02.667Z,30.80
2022-11-29T05:27:14.189Z,31.60
2022-11-29T05:30:20.155Z,27.92
2022-11-29T05:33:47.301Z,28.17
2022-11-29T05:37:12.448Z,27.67
2022-11-29T05:40:40.513Z,27.65
2022-11-29T05:43:49.682Z,28.02
2022-11-29T05:47:02.191Z,27.85
2022-11-29T05:50:22.849Z,28.00
2022-11-29T05:53:36.586Z,29.50
2022-11-29T05:56:44.673Z,26.60
2022-11-29T05:59:50.265Z,26.02
2022-11-29T06:03:04.394Z,26.52
2022-11-29T06:06:24.760Z,28.62
2022-11-29T06:09:35.375Z,28.85
2022-11-29T06:12:38.806Z,29.52
2022-11-29T06:16:05.498Z,27.98
2022-11-29T06:19:34.375Z,30.73
2022-11-29T06:22:39.268Z,29.17
2022-11-29T06:25:48.552Z,29.80
2022-11-29T06:29:19.252Z,31.00
2022-11-29T06:32:21.981Z,29.77
2022-11-29T06:35:46.840Z,30.67
2022-11-29T06:38:49.598Z,32.45
2022-11-29T06:41:51.821Z,33.80
2022-11-29T06:44:54.646Z,29.60
2022-11-29T06:48:03.757Z,34.47
2022-11-29T06:51:31.368Z,32.97
2022-11-29T06:54:42.813Z,33.10
2022-11-29T06:58:21.746Z,29.73
2022-11-29T07:01:51.769Z,31.55
2022-11-29T07:05:14.825Z,34.20
2022-11-29T07:08:20.172Z,31.00
2022-11-29T07:11:22.978Z,33.25
2022-11-29T07:14:25.444Z,31.25
2022-11-29T07:17:56.248Z,30.48
2022-11-29T07:21:23.645Z,31.60
2022-11-29T07:24:56.455Z,32.60
2022-11-29T07:28:01.412Z,32.28
2022-11-29T07:31:28.575Z,35.83
2022-11-29T07:35:08.303Z,37.00
2022-11-29T07:38:28.394Z,42.55
2022-11-29T07:41:53.009Z,39.78
2022-11-29T07:44:55.262Z,40.28
2022-11-29T07:47:58.161Z,38.58
2022-11-29T07:51:01.603Z,40.75
2022-11-29T07:54:04.551Z,43.75
2022-11-29T07:57:07.041Z,41.72
2022-11-29T08:00:10.606Z,38.33
2022-11-29T08:03:13.596Z,36.22
2022-11-29T08:06:16.025Z,35.22
2022-11-29T08:09:18.185Z,37.15
2022-11-29T08:12:20.719Z,35.95
2022-11-29T08:15:25.332Z,36.85
2022-11-29T08:18:27.831Z,32.75
2022-11-29T08:21:30.084Z,39.72
2022-11-29T08:24:32.605Z,39.95
2022-11-29T08:27:35.982Z,39.78
2022-11-29T08:30:38.423Z,40.72
2022-11-29T08:33:45.385Z,36.47
2022-11-29T08:36:48.850Z,32.88
2022-11-29T08:39:51.127Z,30.58
2022-11-29T08:42:57.613Z,35.55
2022-11-29T08:45:59.823Z,38.08
2022-11-29T08:49:02.542Z,32.80
2022-11-29T08:52:23.525Z,32.05
2022-11-29T08:58:29.578Z,36.67
2022-11-29T09:01:32.002Z,43.65
2022-11-29T09:04:34.165Z,38.38
2022-11-29T09:07:37.228Z,39.75
2022-11-29T09:10:40.609Z,37.83
2022-11-29T09:13:45.692Z,35.33
2022-11-29T09:16:47.885Z,37.00
2022-11-29T09:19:50.654Z,37.53
2022-11-29T09:22:52.834Z,36.22
2022-11-29T09:25:55.835Z,37.42
2022-11-29T09:29:03.558Z,40.83
2022-11-29T09:32:06.536Z,40.65
2022-11-29T09:35:09.117Z,46.75
2022-11-29T09:38:12.932Z,42.80
2022-11-29T09:41:53.094Z,49.88
2022-11-29T09:45:10.454Z,45.13
2022-11-29T09:48:47.429Z,44.60
2022-11-29T09:52:08.269Z,44.15
2022-11-29T09:55:37.648Z,45.60
2022-11-29T09:58:48.943Z,45.95
2022-11-29T10:02:07.985Z,48.55
2022-11-29T10:05:20.587Z,44.50
2022-11-29T10:08:46.106Z,45.58
2022-11-29T10:12:17.441Z,48.20
2022-11-29T10:15:29.424Z,42.17
2022-11-29T10:18:40.843Z,42.30
2022-11-29T10:24:56.805Z,44.47
2022-11-29T10:28:01.705Z,44.08
2022-11-29T10:31:27.576Z,40.65
2022-11-29T10:34:31.410Z,39.63
2022-11-29T10:37:34.773Z,43.80
2022-11-29T10:40:39.780Z,41.30
2022-11-29T10:43:43.173Z,40.90
2022-11-29T10:46:45.380Z,41.60
2022-11-29T10:49:48.413Z,40.10
2022-11-29T10:52:52.064Z,41.03
2022-11-29T10:56:00.191Z,43.45
2022-11-29T10:59:07.793Z,41.37
2022-11-29T11:02:21.101Z,41.78
2022-11-29T11:05:26.581Z,47.72
2022-11-29T11:08:30.606Z,45.25
2022-11-29T11:11:33.803Z,45.75
2022-11-29T11:14:38.750Z,43.42
2022-11-29T11:17:55.638Z,45.05
2022-11-29T11:21:01.884Z,41.65
2022-11-29T11:24:04.232Z,39.70
2022-11-29T11:27:06.776Z,41.22
2022-11-29T11:30:22.337Z,40.35
2022-11-29T11:33:31.151Z,37.80
2022-11-29T11:36:33.309Z,38.78
2022-11-29T11:39:35.769Z,39.15
2022-11-29T11:42:40.969Z,39.47
2022-11-29T11:45:52.442Z,43.75
2022-11-29T11:48:54.995Z,44.90
2022-11-29T11:52:01.656Z,41.25
2022-11-29T11:55:25.492Z,44.42
2022-11-29T11:58:55.842Z,44.92
2022-11-29T12:01:58.073Z,43.28
2022-11-29T12:05:04.817Z,43.35
2022-11-29T12:08:11.028Z,40.97
2022-11-29T12:11:16.515Z,43.15
2022-11-29T12:14:28.786Z,45.15
2022-11-29T12:17:52.918Z,43.22
2022-11-29T12:21:00.347Z,45.20
2022-11-29T12:24:32.322Z,42.05
2022-11-29T12:27:34.641Z,42.42
2022-11-29T12:30:40.595Z,39.72
2022-11-29T12:33:57.750Z,40.60
2022-11-29T12:37:08.755Z,44.33
2022-11-29T12:40:23.567Z,43.28
2022-11-29T12:43:46.627Z,44.60
2022-11-29T12:47:34.109Z,47.55
2022-11-29T12:50:37.113Z,50.00
2022-11-29T12:53:42.430Z,47.15
2022-11-29T12:57:11.141Z,43.42
2022-11-29T13:00:16.565Z,45.28
2022-11-29T13:03:21.637Z,46.15
2022-11-29T13:06:39.528Z,46.80
2022-11-29T13:09:54.209Z,49.75
2022-11-29T13:13:03.365Z,43.65
2022-11-29T13:16:22.995Z,42.80
2022-11-29T13:19:33.530Z,50.15
2022-11-29T13:22:55.000Z,47.70
2022-11-29T13:26:00.604Z,52.83
2022-11-29T13:29:04.061Z,48.78
2022-11-29T13:32:14.663Z,55.00
2022-11-29T13:35:51.028Z,47.62
2022-11-29T13:39:11.676Z,53.83
2022-11-29T13:42:29.365Z,49.80
2022-11-29T13:45:47.790Z,54.67
2022-11-29T13:48:52.644Z,51.22
2022-11-29T13:52:05.626Z,51.00
2022-11-29T13:55:11.539Z,53.67
2022-11-29T13:58:28.907Z,52.67
2022-11-29T14:02:00.540Z,53.15
2022-11-29T14:05:04.580Z,56.85
2022-11-29T14:09:02.507Z,50.55
2022-11-29T14:12:18.460Z,53.42
2022-11-29T14:15:25.287Z,58.97
2022-11-29T14:18:49.676Z,53.10
2022-11-29T14:22:06.808Z,48.95
2022-11-29T14:25:49.785Z,53.20
2022-11-29T14:28:45.759Z,54.30
2022-11-29T14:31:52.827Z,45.17
2022-11-29T14:35:04.020Z,52.90
2022-11-29T14:38:31.134Z,53.47
2022-11-29T14:42:06.810Z,51.55
2022-11-29T14:45:25.970Z,48.22
2022-11-29T14:48:31.911Z,52.78
2022-11-29T14:51:34.925Z,52.28
2022-11-29T14:54:54.603Z,53.90
2022-11-29T14:57:57.606Z,53.15
2022-11-29T15:01:09.642Z,53.45
2022-11-29T15:04:13.138Z,53.72
2022-11-29T15:07:19.434Z,47.38
2022-11-29T15:10:27.113Z,49.97
2022-11-29T15:13:35.445Z,56.40
2022-11-29T15:16:47.129Z,49.85
2022-11-29T15:20:31.884Z,50.38
2022-11-29T15:23:43.924Z,53.28
2022-11-29T15:27:00.063Z,50.60
2022-11-29T15:30:33.279Z,50.67
2022-11-29T15:33:44.002Z,51.47
2022-11-29T15:36:46.504Z,48.65
2022-11-29T15:40:01.765Z,45.55
2022-11-29T15:43:17.566Z,48.67
2022-11-29T15:46:24.363Z,53.67
2022-11-29T15:49:28.507Z,51.40
2022-11-29T15:52:36.369Z,51.20
2022-11-29T15:55:38.984Z,53.28
2022-11-29T15:58:42.028Z,53.80
2022-11-29T16:01:47.176Z,50.10
2022-11-29T16:04:54.477Z,49.60
2022-11-29T16:08:00.365Z,49.50
2022-11-29T16:11:05.002Z,50.72
2022-11-29T16:14:17.512Z,49.13
2022-11-29T16:17:20.937Z,53.05
2022-11-29T16:20:25.452Z,54.97
2022-11-29T16:23:39.397Z,52.47
2022-11-29T16:26:45.298Z,56.53
2022-11-29T16:29:48.545Z,53.47
2022-11-29T16:33:00.429Z,51.25
2022-11-29T16:36:35.491Z,52.58
2022-11-29T16:39:38.715Z,49.47
2022-11-29T16:42:43.137Z,51.90
2022-11-29T16:45:45.472Z,51.97
2022-11-29T16:48:49.354Z,53.40
2022-11-29T16:51:53.740Z,53.55
2022-11-29T16:54:56.977Z,49.58
2022-11-29T16:57:59.140Z,47.90
2022-11-29T17:01:19.325Z,50.90
2022-11-29T17:04:23.475Z,47.72
2022-11-29T17:07:31.569Z,52.88
2022-11-29T17:10:33.857Z,54.28
2022-11-29T17:13:36.313Z,50.10
2022-11-29T17:16:39.343Z,50.38
2022-11-29T17:19:41.848Z,60.65
2022-11-29T17:22:43.954Z,52.13
2022-11-29T17:25:59.370Z,55.97
2022-11-29T17:29:01.495Z,50.55
2022-11-29T17:32:04.087Z,52.50
2022-11-29T17:35:06.409Z,52.45
2022-11-29T17:38:08.788Z,53.72
2022-11-29T17:41:16.268Z,48.55
2022-11-29T17:44:18.623Z,52.28
2022-11-29T17:47:20.757Z,52.28
2022-11-29T17:50:23.142Z,49.78
2022-11-29T17:53:25.508Z,51.33
2022-11-29T17:56:29.187Z,49.60
2022-11-29T17:59:31.420Z,52.55
2022-11-29T18:02:33.961Z,48.45
2022-11-29T18:05:36.495Z,48.42
2022-11-29T18:08:40.494Z,51.55
2022-11-29T18:11:48.738Z,50.78
2022-11-29T18:14:52.355Z,49.65
2022-11-29T18:17:54.884Z,48.22
2022-11-29T18:20:59.314Z,49.90
2022-11-29T18:24:03.806Z,49.72
2022-11-29T18:27:05.923Z,53.78
2022-11-29T18:30:08.976Z,51.88
2022-11-29T18:33:11.305Z,50.78
2022-11-29T18:36:19.585Z,55.65
2022-11-29T18:39:23.531Z,48.45
2022-11-29T18:42:25.904Z,56.83
2022-11-29T18:45:28.003Z,51.72
2022-11-29T18:48:30.455Z,54.25
2022-11-29T18:51:34.223Z,56.10
2022-11-29T18:54:36.690Z,61.45
2022-11-29T18:57:38.855Z,56.67
2022-11-29T19:00:42.485Z,55.55
2022-11-29T19:03:46.713Z,56.83
2022-11-29T19:06:49.367Z,56.85
2022-11-29T19:09:51.478Z,59.45
2022-11-29T19:12:54.893Z,55.42
2022-11-29T19:15:57.070Z,55.60
2022-11-29T19:19:01.239Z,54.42
2022-11-29T19:22:03.405Z,56.15
2022-11-29T19:25:06.347Z,55.03
2022-11-29T19:28:13.902Z,55.70
2022-11-29T19:31:19.199Z,57.40
2022-11-29T19:34:21.379Z,56.00
2022-11-29T19:37:23.884Z,59.05
2022-11-29T19:40:26.050Z,53.22
2022-11-29T19:43:28.459Z,51.15
2022-11-29T19:46:36.272Z,51.92
2022-11-29T19:49:43.561Z,53.08
2022-11-29T19:52:48.776Z,50.12
2022-11-29T19:55:51.177Z,52.62
2022-11-29T19:58:53.379Z,53.28
2022-11-29T20:01:55.892Z,50.78
2022-11-29T20:04:58.390Z,51.00
2022-11-29T20:08:00.649Z,52.03
2022-11-29T20:11:06.135Z,54.50
2022-11-29T20:14:10.401Z,49.15
2022-11-29T20:17:12.924Z,51.80
2022-11-29T20:20:15.560Z,50.97
2022-11-29T20:23:18.049Z,51.35
2022-11-29T20:26:20.924Z,50.72
2022-11-29T20:29:30.453Z,54.72
2022-11-29T20:32:34.856Z,49.85
2022-11-29T20:35:38.251Z,51.75
2022-11-29T20:38:53.867Z,47.95
2022-11-29T20:42:04.777Z,47.60
2022-11-29T20:45:09.051Z,50.12
2022-11-29T20:48:21.106Z,45.75
2022-11-29T20:51:30.348Z,45.75
2022-11-29T20:54:33.349Z,40.95
2022-11-29T20:57:38.345Z,42.03
2022-11-29T21:00:40.892Z,40.53
2022-11-29T21:03:43.202Z,36.63
2022-11-29T21:06:45.729Z,37.53
2022-11-29T21:09:47.942Z,37.55
2022-11-29T21:12:50.745Z,39.83
2022-11-29T21:15:53.625Z,40.65
2022-11-29T21:19:02.134Z,40.08
2022-11-29T21:22:07.441Z,40.03
2022-11-29T21:25:15.866Z,39.28
2022-11-29T21:28:18.508Z,37.95
2022-11-29T21:31:21.280Z,33.83
2022-11-29T21:34:23.423Z,37.67
2022-11-29T21:37:29.121Z,36.80
2022-11-29T21:40:32.572Z,34.17
2022-11-29T21:44:04.867Z,35.30
2022-11-29T21:46:57.344Z,34.30
2022-11-29T21:49:59.787Z,34.05
2022-11-29T21:53:01.940Z,32.45
2022-11-29T21:56:06.713Z,34.40
2022-11-29T21:59:08.789Z,33.85
2022-11-29T22:02:11.437Z,33.40
2022-11-29T22:05:14.091Z,31.15
2022-11-29T22:08:16.214Z,32.35
2022-11-29T22:11:30.766Z,30.60
2022-11-29T22:14:33.580Z,33.88
2022-11-29T22:17:36.008Z,33.95
2022-11-29T22:20:38.161Z,34.35
2022-11-29T22:23:40.791Z,30.02
2022-11-29T22:26:43.745Z,30.90
2022-11-29T22:29:46.269Z,30.88
2022-11-29T22:32:48.985Z,33.05
2022-11-29T22:35:51.386Z,33.00
2022-11-29T22:38:53.606Z,32.35
2022-11-29T22:41:55.956Z,29.80
2022-11-29T22:44:58.198Z,27.87
2022-11-29T22:48:00.718Z,28.90
2022-11-29T22:51:13.292Z,30.08
2022-11-29T22:54:16.487Z,29.30
2022-11-29T22:57:18.887Z,30.35
2022-11-29T23:00:21.415Z,32.05
2022-11-29T23:03:23.535Z,32.15
2022-11-29T23:06:38.043Z,30.60
2022-11-29T23:09:40.190Z,29.02
2022-11-29T23:12:44.476Z,26.75
2022-11-29T23:15:46.614Z,27.87
2022-11-29T23:18:49.734Z,29.58
2022-11-29T23:21:52.050Z,29.17
2022-11-29T23:24:54.499Z,29.75
2022-11-29T23:27:56.670Z,28.92
2022-11-29T23:30:59.308Z,27.87
2022-11-29T23:34:02.583Z,27.90
2022-11-29T23:37:04.987Z,29.55
2022-11-29T23:40:07.845Z,25.48
2022-11-29T23:43:10.298Z,29.63
2022-11-29T23:46:15.642Z,27.33
2022-11-29T23:49:18.517Z,29.45
2022-11-29T23:52:20.615Z,28.27
2022-11-29T23:55:24.594Z,28.67
2022-11-29T23:58:28.646Z,29.87
